Terminal Aerodrome Forecast
Issued by NWS Spokane, WA

Home | Current Version | Previous Version | Text Only | Print | Product List | Glossary On
Versions: 1 2 3 4 5 6 7 8 9 10 11 12 13 14 15 16 17 18 19 20 21 22 23 24
357
FTUS46 KOTX 241120
TAFLWS
TAF
KLWS 241120Z 2412/2512 21005KT P6SM SCT100 SCT150
     FM242100 33008KT P6SM FEW080
     FM250200 32006KT P6SM SKC
     FM250700 VRB03KT P6SM FEW250=

USA.gov is the U.S. government's official web portal to all federal, state and local government web resources and services.